Time;durP1;ratioP1;P1;durP2;ratioP2;P2;SDS_P1;SDS_P2;PMS_P1;PMS_P2;Temp;Humidity;BMP_temperature;BMP_pressure;BME280_temperature;BME280_humidity;BME280_pressure;Samples;Min_cycle;Max_cycle;Signal;HPM_P1;HPM_P2
2024/03/10 00:00:20;;;;;;;0.40;0.30;;;14.20;36.90;;;9.64;45.68;93331.31;4969895;28;20113;-55
2024/03/10 00:02:46;;;;;;;0.55;0.35;;;14.10;37.20;;;9.54;46.09;93337.72;4966012;28;20033;-57
2024/03/10 00:05:13;;;;;;;1.50;0.40;;;14.00;37.20;;;9.47;46.25;93332.09;4951207;28;20035;-53
2024/03/10 00:07:46;;;;;;;0.45;0.40;;;14.00;37.40;;;9.33;47.79;93331.47;4970454;28;20630;-55
2024/03/10 00:10:14;;;;;;;0.82;0.55;;;13.90;37.60;;;9.24;47.27;93329.59;4969297;28;20046;-55
2024/03/10 00:12:45;;;;;;;1.35;0.80;;;13.80;37.70;;;9.17;47.86;93336.44;4966314;28;20088;-56
2024/03/10 00:15:11;;;;;;;0.50;0.50;;;13.70;37.90;;;9.07;46.58;93336.72;4970206;28;20751;-56
2024/03/10 00:17:37;;;;;;;4.72;0.60;;;13.60;37.90;;;9.00;47.66;93329.22;4969990;28;20033;-54
2024/03/10 00:20:04;;;;;;;1.00;0.60;;;13.60;38.00;;;8.96;47.67;93328.25;4970155;28;20064;-53
2024/03/10 00:22:30;;;;;;;0.65;0.50;;;13.50;38.20;;;8.87;49.77;93320.28;4965250;28;20030;-53
2024/03/10 00:24:56;;;;;;;0.80;0.60;;;13.40;38.40;;;8.80;49.42;93323.38;4970137;28;20042;-56
2024/03/10 00:27:22;;;;;;;2.63;0.52;;;13.30;38.60;;;8.73;49.47;93324.91;4969249;28;20464;-52
2024/03/10 00:29:48;;;;;;;0.70;0.50;;;13.30;38.70;;;8.69;49.09;93330.06;4970205;28;20484;-53
2024/03/10 00:32:13;;;;;;;2.17;0.50;;;13.20;38.80;;;8.61;49.10;93320.19;4969861;28;20022;-51
2024/03/10 00:34:39;;;;;;;0.80;0.60;;;13.20;38.90;;;8.55;50.29;93318.75;4969508;28;20057;-56
2024/03/10 00:37:05;;;;;;;1.25;0.50;;;13.10;39.10;;;8.50;50.84;93322.34;4970830;28;20392;-57
2024/03/10 00:39:32;;;;;;;0.43;0.40;;;13.10;39.30;;;8.31;49.52;93313.81;4969949;28;20125;-56
2024/03/10 00:41:58;;;;;;;0.40;0.40;;;13.00;39.40;;;8.38;51.08;93310.72;4970137;28;20498;-55
2024/03/10 00:44:24;;;;;;;0.70;0.40;;;12.90;39.50;;;8.35;52.81;93309.44;4969903;28;20097;-56
2024/03/10 00:46:49;;;;;;;0.40;0.30;;;12.90;39.70;;;8.25;53.31;93302.53;4968151;28;20619;-56
2024/03/10 00:49:15;;;;;;;1.48;0.50;;;12.80;39.90;;;8.15;52.28;93299.34;4970810;28;20377;-49
2024/03/10 00:51:42;;;;;;;1.48;0.40;;;12.70;40.00;;;8.04;51.45;93294.31;4968517;28;20033;-49
2024/03/10 00:54:10;;;;;;;0.40;0.40;;;12.70;40.70;;;7.97;52.02;93291.31;4969863;28;20034;-56
2024/03/10 00:56:36;;;;;;;0.73;0.40;;;12.60;40.20;;;7.93;53.68;93286.91;4970111;28;20041;-53
2024/03/10 00:59:02;;;;;;;0.50;0.40;;;12.50;40.30;;;7.94;52.05;93294.56;4969520;28;20027;-52
2024/03/10 01:01:29;;;;;;;0.50;0.50;;;12.50;40.50;;;7.86;51.61;93284.69;4969614;28;20026;-49
2024/03/10 01:03:55;;;;;;;0.35;0.30;;;12.40;40.50;;;7.76;52.59;93279.63;4969096;28;20109;-53
2024/03/10 01:06:21;;;;;;;0.40;0.40;;;12.30;40.50;;;7.70;49.70;93270.25;4969812;28;20481;-54
2024/03/10 01:08:47;;;;;;;0.40;0.38;;;12.30;40.50;;;7.59;54.41;93272.38;4970380;28;20484;-54
2024/03/10 01:11:13;;;;;;;0.30;0.30;;;12.20;40.60;;;7.50;54.70;93274.16;4969699;28;20026;-55
2024/03/10 01:13:39;;;;;;;1.75;0.50;;;12.10;40.90;;;7.30;57.95;93281.50;4973141;28;20536;-58
2024/03/10 01:16:05;;;;;;;0.57;0.52;;;12.00;41.20;;;7.02;59.37;93283.44;4956355;28;20034;-57
2024/03/10 01:18:31;;;;;;;0.55;0.43;;;11.90;41.50;;;6.83;61.02;93283.56;4973311;28;20497;-53
2024/03/10 01:20:58;;;;;;;2.08;0.47;;;11.70;41.70;;;6.65;60.97;93279.97;4972945;28;20110;-55
2024/03/10 01:23:24;;;;;;;0.52;0.40;;;11.60;42.00;;;6.48;61.16;93269.97;4972368;28;20479;-55
2024/03/10 01:25:50;;;;;;;0.88;0.40;;;11.40;42.20;;;6.37;60.35;93273.91;4973391;28;20074;-52
2024/03/10 01:28:16;;;;;;;0.77;0.70;;;11.30;42.40;;;6.15;62.10;93263.22;4971143;28;20027;-53
2024/03/10 01:30:42;;;;;;;0.52;0.50;;;11.10;42.70;;;6.07;63.69;93264.66;4972443;28;20034;-52
2024/03/10 01:33:08;;;;;;;0.70;0.60;;;11.00;43.00;;;5.98;62.76;93255.84;4972670;28;20029;-51
2024/03/10 01:35:34;;;;;;;0.45;0.45;;;10.90;43.20;;;5.89;63.36;93254.91;4972179;28;20552;-55
2024/03/10 01:38:00;;;;;;;0.70;0.43;;;10.80;43.40;;;5.91;62.67;93250.13;4972933;28;20022;-56
2024/03/10 01:40:25;;;;;;;0.70;0.60;;;10.70;43.60;;;5.88;63.84;93240.16;4953611;28;20030;-51
2024/03/10 01:42:55;;;;;;;3.17;0.70;;;10.60;43.80;;;5.87;63.15;93236.72;4972588;28;20025;-55
2024/03/10 01:45:22;;;;;;;2.35;0.60;;;10.60;44.10;;;5.85;63.95;93240.72;4970909;28;20026;-52
2024/03/10 01:47:50;;;;;;;1.25;0.60;;;10.50;44.20;;;5.84;62.86;93232.03;4955382;28;20046;-48
2024/03/10 01:50:18;;;;;;;0.63;0.52;;;10.60;44.40;;;5.88;64.80;93227.72;4970991;28;20037;-53
2024/03/10 01:52:47;;;;;;;1.50;0.50;;;10.50;44.50;;;5.88;65.25;93224.31;4971566;28;20018;-52
2024/03/10 01:55:19;;;;;;;0.95;0.60;;;10.50;44.60;;;5.86;64.37;93227.25;4972641;28;20049;-51
2024/03/10 01:57:47;;;;;;;0.73;0.60;;;10.50;44.80;;;5.94;64.52;93216.00;4970549;28;20049;-50
2024/03/10 02:00:14;;;;;;;0.52;0.52;;;10.50;45.00;;;5.93;64.57;93213.69;4954893;28;20117;-54
2024/03/10 02:02:43;;;;;;;0.50;0.50;;;10.50;45.00;;;5.94;65.00;93197.53;4972383;28;20026;-50
2024/03/10 02:05:09;;;;;;;0.55;0.50;;;10.50;45.20;;;5.99;64.09;93209.88;4972633;28;20030;-55
2024/03/10 02:07:36;;;;;;;0.82;0.50;;;10.50;45.20;;;5.99;65.81;93205.34;4972453;28;20121;-52
2024/03/10 02:10:06;;;;;;;0.73;0.50;;;10.50;45.30;;;5.98;66.70;93210.91;4971333;28;20128;-56
2024/03/10 02:12:34;;;;;;;2.00;0.60;;;10.50;45.40;;;5.94;66.28;93199.38;4951227;28;20045;-52
2024/03/10 02:15:06;;;;;;;1.23;0.63;;;10.50;45.60;;;5.85;66.72;93190.53;4972221;28;20516;-52
2024/03/10 02:17:36;;;;;;;1.35;0.50;;;10.50;45.70;;;5.74;66.71;93196.00;4971345;28;20153;-56
2024/03/10 02:20:14;;;;;;;1.08;0.60;;;10.40;45.60;;;5.71;65.99;93193.19;4971936;28;20676;-51
2024/03/10 02:22:42;;;;;;;0.47;0.47;;;10.30;45.80;;;5.71;67.66;93188.66;4954840;28;20041;-54
2024/03/10 02:25:15;;;;;;;1.73;0.57;;;10.30;45.90;;;5.60;68.58;93176.72;4955001;28;20428;-50
2024/03/10 02:27:44;;;;;;;1.27;0.70;;;10.30;46.10;;;5.55;68.80;93180.25;4971374;28;20045;-51
2024/03/10 02:30:29;;;;;;;0.65;0.50;;;10.20;46.10;;;5.45;69.74;93161.13;4971764;28;20038;-52
2024/03/10 02:49:21;;;;;;;0.52;0.40;;;9.90;46.80;;;5.67;64.61;93132.22;5010934;28;20553;-56
2024/03/10 02:51:46;;;;;;;0.77;0.47;;;10.00;46.80;;;5.78;63.73;93132.81;5011548;28;20032;-52
2024/03/10 02:54:12;;;;;;;1.25;0.85;;;10.10;46.80;;;5.78;66.99;93128.31;4992636;28;20026;-54
2024/03/10 02:56:39;;;;;;;0.45;0.30;;;10.10;46.90;;;5.77;66.61;93126.75;5010550;28;20112;-52
2024/03/10 02:59:05;;;;;;;0.80;0.43;;;10.10;46.90;;;5.67;65.40;93121.66;5015364;28;20402;-53
2024/03/10 03:01:37;;;;;;;0.70;0.50;;;10.20;46.90;;;5.68;66.04;93114.53;5010449;28;20519;-56
2024/03/10 03:04:04;;;;;;;0.90;0.40;;;10.20;46.80;;;5.66;69.03;93114.78;5009612;28;20462;-52
2024/03/10 03:06:30;;;;;;;2.15;0.45;;;10.10;46.90;;;5.48;68.17;93110.38;5017329;28;20467;-54
2024/03/10 03:08:56;;;;;;;0.93;0.93;;;10.10;47.00;;;5.46;70.19;93094.06;5010224;28;20017;-51
2024/03/10 03:11:22;;;;;;;1.08;0.60;;;10.10;47.10;;;5.46;68.99;93086.94;5009809;28;20028;-54
2024/03/10 03:13:48;;;;;;;2.05;0.50;;;10.10;47.20;;;5.51;65.91;93075.47;5009492;28;20462;-52
2024/03/10 03:16:14;;;;;;;0.75;0.43;;;10.10;47.10;;;5.53;64.78;93049.56;5013781;28;20029;-52
2024/03/10 03:18:40;;;;;;;1.63;0.65;;;10.10;47.10;;;5.61;61.42;93026.94;5010134;28;20032;-50
2024/03/10 03:21:08;;;;;;;0.90;0.60;;;10.10;46.90;;;5.85;63.96;93009.00;5010077;28;20029;-56
2024/03/10 03:23:33;;;;;;;0.60;0.50;;;10.20;47.00;;;6.05;60.02;92984.06;5017125;28;20040;-52
2024/03/10 03:25:59;;;;;;;2.65;1.88;;;10.20;47.00;;;6.21;55.74;92979.97;5009186;28;20399;-51
2024/03/10 03:28:27;;;;;;;1.77;0.40;;;10.30;46.80;;;6.64;57.25;92957.53;5010366;28;20115;-51
2024/03/10 03:30:55;;;;;;;0.40;0.35;;;10.40;46.60;;;7.00;54.61;92951.31;5009818;28;20041;-55
2024/03/10 03:33:21;;;;;;;1.33;0.40;;;10.60;46.50;;;7.33;51.88;92955.19;5016285;28;20598;-52
2024/03/10 03:35:48;;;;;;;1.33;0.55;;;10.80;46.20;;;7.55;51.50;92979.97;5008932;28;20450;-51
2024/03/10 03:38:14;;;;;;;0.80;0.50;;;11.00;45.80;;;7.56;51.12;93003.53;5011936;28;20103;-55
2024/03/10 03:40:40;;;;;;;0.88;0.70;;;11.10;45.60;;;7.61;51.59;93029.09;5008620;28;20025;-51
2024/03/10 03:43:08;;;;;;;2.08;0.77;;;11.30;45.30;;;7.59;54.00;93049.81;5008173;28;20050;-51
2024/03/10 03:45:33;;;;;;;0.90;0.60;;;11.40;45.20;;;7.47;55.51;93057.56;5008355;28;20033;-51
2024/03/10 03:47:59;;;;;;;2.00;0.90;;;11.50;45.10;;;7.13;60.12;93051.03;5009657;28;20025;-54
2024/03/10 03:50:26;;;;;;;2.05;0.80;;;11.40;45.10;;;6.69;59.89;93034.91;5009540;28;20029;-54
2024/03/10 03:52:52;;;;;;;0.80;0.50;;;11.40;45.10;;;6.33;62.33;93031.50;5013221;28;20022;-51
2024/03/10 03:55:18;;;;;;;1.30;0.77;;;11.30;45.10;;;6.20;63.28;93041.84;5008927;28;20025;-53
2024/03/10 03:57:45;;;;;;;3.97;0.70;;;11.20;45.20;;;6.07;66.26;93047.16;5011875;28;20021;-54
2024/03/10 04:00:12;;;;;;;2.63;0.95;;;11.00;45.30;;;5.98;65.86;93062.94;5014046;28;20032;-53
2024/03/10 04:02:42;;;;;;;1.17;0.80;;;10.90;45.50;;;5.68;68.36;93059.84;5008110;28;20021;-54
2024/03/10 04:05:08;;;;;;;0.80;0.77;;;10.80;45.80;;;5.43;70.95;93069.03;5008454;28;20028;-52
2024/03/10 04:07:34;;;;;;;1.20;0.80;;;10.60;46.00;;;5.33;71.24;93063.94;5010537;28;20029;-56
2024/03/10 04:10:00;;;;;;;1.42;0.80;;;10.40;46.20;;;5.26;71.91;93058.25;5010981;28;20040;-52
2024/03/10 04:12:26;;;;;;;1.15;0.80;;;10.30;46.50;;;5.12;72.50;93060.88;5009279;28;20025;-51
2024/03/10 04:14:51;;;;;;;1.00;0.82;;;10.10;46.70;;;5.05;73.08;93068.41;5008727;28;20505;-51
2024/03/10 04:17:17;;;;;;;1.60;0.77;;;10.00;46.90;;;4.85;73.71;93062.38;5015846;28;20495;-52
2024/03/10 04:19:43;;;;;;;1.83;0.77;;;9.90;47.20;;;4.75;75.80;93065.19;5009317;28;20476;-51
2024/03/10 04:22:09;;;;;;;1.00;0.90;;;9.70;47.40;;;4.71;74.37;93053.66;5008656;28;20029;-52
2024/03/10 04:24:39;;;;;;;1.63;0.63;;;9.70;47.60;;;4.69;74.00;93047.13;5013049;28;20037;-51
2024/03/10 04:27:09;;;;;;;1.38;0.70;;;9.60;48.00;;;4.70;73.96;93049.47;5009473;28;20372;-53
2024/03/10 04:29:35;;;;;;;1.60;0.50;;;9.50;48.00;;;4.70;73.00;93054.75;5005756;28;20018;-52
2024/03/10 04:32:01;;;;;;;0.70;0.43;;;9.50;48.20;;;4.69;73.23;93039.22;5010715;28;20036;-56
2024/03/10 04:34:27;;;;;;;4.97;3.05;;;9.40;48.30;;;4.63;73.05;93044.56;5018882;28;20131;-52
2024/03/10 04:36:53;;;;;;;1.70;1.15;;;9.40;48.40;;;4.78;70.90;93022.41;5010890;28;20856;-52
2024/03/10 04:39:20;;;;;;;1.38;0.55;;;9.40;48.50;;;4.87;70.71;93012.00;4995726;28;20060;-55
2024/03/10 04:41:46;;;;;;;0.82;0.50;;;9.40;48.50;;;4.90;69.99;93018.53;5003856;28;20022;-53
2024/03/10 04:44:12;;;;;;;0.68;0.50;;;9.40;48.50;;;4.89;69.85;93017.78;5008670;28;20040;-51
2024/03/10 04:46:39;;;;;;;0.80;0.50;;;9.50;48.60;;;4.95;71.68;93005.25;5009936;28;20454;-54
2024/03/10 04:49:05;;;;;;;0.38;0.38;;;9.50;48.60;;;4.93;72.89;92997.63;5013237;28;20017;-52
2024/03/10 04:51:32;;;;;;;0.57;0.40;;;9.50;48.70;;;4.83;75.68;93003.88;5013247;28;20032;-51
2024/03/10 04:53:57;;;;;;;0.70;0.40;;;9.50;48.90;;;4.83;73.82;92998.59;5013726;28;20383;-52
2024/03/10 04:56:23;;;;;;;3.33;0.47;;;9.50;48.90;;;4.85;71.91;93007.00;5013081;28;20033;-52
2024/03/10 04:58:51;;;;;;;1.33;0.45;;;9.50;48.90;;;4.85;71.47;93022.81;5005704;28;20032;-51
2024/03/10 05:01:19;;;;;;;0.50;0.50;;;9.50;48.90;;;4.85;74.84;93016.75;5008238;28;20387;-51
2024/03/10 05:03:45;;;;;;;0.55;0.50;;;9.50;49.00;;;4.85;74.94;93020.19;5009755;28;20025;-51
2024/03/10 05:06:11;;;;;;;1.42;0.57;;;9.50;49.00;;;4.83;74.52;93021.56;5009324;28;20048;-55
2024/03/10 05:08:37;;;;;;;2.35;0.68;;;9.50;49.10;;;4.80;72.42;93025.56;5006957;28;20365;-52
2024/03/10 05:11:05;;;;;;;0.55;0.50;;;9.50;49.20;;;4.84;72.59;93026.53;5011969;28;20437;-56
2024/03/10 05:13:36;;;;;;;1.75;0.50;;;9.50;49.20;;;4.86;72.83;93029.69;5008784;28;20395;-52
2024/03/10 05:16:04;;;;;;;3.92;0.73;;;9.50;49.30;;;4.88;71.37;93030.16;5012029;28;20032;-55
2024/03/10 05:18:32;;;;;;;0.98;0.52;;;9.50;49.40;;;5.00;69.71;93023.63;5012419;28;20422;-52
2024/03/10 05:20:58;;;;;;;0.80;0.60;;;9.50;49.20;;;5.09;69.03;93027.16;5012599;28;20032;-53
2024/03/10 05:23:24;;;;;;;3.33;0.80;;;9.50;49.20;;;5.10;69.21;93037.41;5011274;28;20040;-53
2024/03/10 05:25:50;;;;;;;1.02;0.80;;;9.60;49.80;;;5.18;68.12;93032.56;5012531;28;20116;-56
2024/03/10 05:28:17;;;;;;;0.63;0.50;;;9.70;49.20;;;5.25;67.97;93009.97;5011509;28;20029;-51
2024/03/10 05:30:44;;;;;;;0.50;0.50;;;9.70;49.10;;;5.28;68.76;93008.59;5012746;28;20033;-52
2024/03/10 05:33:11;;;;;;;4.45;1.73;;;9.70;49.10;;;5.40;68.15;92998.34;5013793;28;20025;-55
2024/03/10 05:35:37;;;;;;;2.42;0.90;;;9.80;49.20;;;5.34;69.04;92997.66;5010952;28;20049;-51
2024/03/10 05:38:04;;;;;;;5.35;0.65;;;9.80;49.10;;;5.37;68.94;93001.56;5012458;28;20403;-56
2024/03/10 05:40:32;;;;;;;2.00;1.00;;;9.90;49.10;;;5.41;68.38;92994.59;5011449;28;20506;-52
2024/03/10 05:42:58;;;;;;;2.45;1.17;;;9.90;49.10;;;5.22;71.57;92986.78;5013417;28;20032;-54
2024/03/10 05:45:24;;;;;;;0.82;0.57;;;9.90;49.10;;;5.09;73.61;92998.13;5013313;28;20488;-54
2024/03/10 05:47:49;;;;;;;1.10;0.73;;;9.90;49.20;;;5.23;69.91;92995.50;5014834;28;20036;-52
2024/03/10 05:50:16;;;;;;;3.58;0.70;;;9.80;49.10;;;5.28;67.57;93006.75;5012202;28;20055;-51
2024/03/10 05:52:43;;;;;;;1.77;0.50;;;9.90;49.10;;;5.52;63.96;93000.47;5013672;28;20012;-51
2024/03/10 05:55:09;;;;;;;0.55;0.55;;;9.90;49.00;;;5.77;65.75;93002.59;5016077;28;20541;-51
2024/03/10 05:57:35;;;;;;;1.13;0.50;;;10.00;48.90;;;5.69;67.31;92994.56;5010586;28;20067;-53
2024/03/10 06:00:05;;;;;;;0.85;0.57;;;10.00;48.90;;;5.54;69.02;92987.75;5015402;28;20074;-55
2024/03/10 06:02:31;;;;;;;0.50;0.50;;;10.10;48.90;;;5.55;65.73;93003.31;5011178;28;20033;-52
2024/03/10 06:04:57;;;;;;;1.17;0.50;;;10.00;48.80;;;5.63;64.11;92982.56;5010908;28;20033;-53
2024/03/10 06:07:23;;;;;;;0.80;0.40;;;10.10;48.60;;;5.83;64.66;92986.63;5008313;28;20045;-53
2024/03/10 06:09:49;;;;;;;1.90;0.80;;;10.10;48.60;;;6.09;61.44;92976.31;5010890;28;20022;-52
2024/03/10 06:12:14;;;;;;;0.63;0.40;;;10.20;48.50;;;6.22;63.63;92959.59;5011145;28;20029;-52
2024/03/10 06:14:40;;;;;;;0.30;0.30;;;10.30;48.50;;;6.19;63.51;92963.63;5011527;28;20032;-54
2024/03/10 06:17:08;;;;;;;0.57;0.38;;;10.40;48.40;;;6.17;63.28;92970.28;5010163;28;20025;-53
2024/03/10 06:27:46;;;;;;;1.08;0.70;;;10.70;48.00;;;6.30;61.94;93008.31;5007521;28;20029;-53
2024/03/10 06:30:12;;;;;;;0.82;0.45;;;10.70;47.80;;;6.66;59.00;93010.91;5008562;28;20021;-53
2024/03/10 06:32:38;;;;;;;0.45;0.40;;;10.90;47.60;;;7.06;58.37;93016.28;5009346;28;20025;-56
2024/03/10 06:35:06;;;;;;;1.45;0.70;;;11.10;47.40;;;7.30;57.55;93037.06;5009820;28;20037;-55
2024/03/10 06:37:33;;;;;;;0.55;0.50;;;11.30;47.20;;;7.39;57.35;93024.66;5012583;28;20048;-58
2024/03/10 06:40:01;;;;;;;0.80;0.57;;;11.50;47.10;;;7.42;58.16;93018.75;5009880;28;20025;-50
2024/03/10 06:42:27;;;;;;;0.73;0.57;;;11.70;47.60;;;7.44;58.17;93026.41;5011537;28;20059;-53
2024/03/10 06:44:52;;;;;;;1.27;0.80;;;11.80;46.70;;;7.36;60.23;93004.88;5012753;28;20029;-51
2024/03/10 06:47:19;;;;;;;0.60;0.52;;;11.90;46.60;;;7.27;61.79;92992.66;5013959;28;20030;-53
2024/03/10 06:49:47;;;;;;;2.35;0.50;;;12.00;46.60;;;7.16;61.67;93003.53;5010492;28;20427;-51
2024/03/10 06:52:13;;;;;;;1.73;0.50;;;12.00;46.50;;;6.94;60.95;92985.84;5009888;28;20175;-51
2024/03/10 06:54:40;;;;;;;0.77;0.70;;;12.00;46.40;;;7.00;62.76;92994.44;5018097;28;20032;-51
2024/03/10 06:57:07;;;;;;;0.70;0.57;;;12.00;46.30;;;7.16;62.02;93008.06;5013255;28;20033;-51
2024/03/10 06:59:34;;;;;;;1.50;0.60;;;12.00;46.40;;;7.22;63.13;93006.06;5011126;28;20134;-53
2024/03/10 07:02:02;;;;;;;1.20;0.73;;;12.10;46.40;;;7.23;62.33;93018.19;5012722;28;20017;-54
2024/03/10 07:04:28;;;;;;;1.35;0.60;;;12.10;46.40;;;7.19;59.60;93025.97;5009597;28;20485;-53
2024/03/10 07:06:55;;;;;;;2.25;0.93;;;12.20;46.30;;;7.16;60.56;93016.00;5010172;28;20044;-55
2024/03/10 07:09:25;;;;;;;1.35;0.88;;;12.20;46.20;;;7.13;61.37;93009.44;5006453;28;20029;-53
2024/03/10 07:11:53;;;;;;;0.98;0.70;;;12.20;46.10;;;7.04;63.49;93000.69;5008668;28;20388;-50
2024/03/10 07:14:20;;;;;;;0.93;0.70;;;12.20;46.10;;;7.00;62.40;93025.44;5010329;28;20025;-51
2024/03/10 07:16:47;;;;;;;1.08;0.60;;;12.20;46.10;;;6.90;64.58;93010.59;5009089;28;20391;-54
2024/03/10 07:19:17;;;;;;;0.82;0.65;;;12.20;46.20;;;6.83;66.72;92991.69;5010232;28;20040;-51
2024/03/10 07:21:44;;;;;;;0.95;0.60;;;12.20;46.30;;;6.80;64.32;93008.19;5006255;28;20079;-54
2024/03/10 07:24:10;;;;;;;0.60;0.60;;;12.20;46.40;;;6.98;65.12;93027.59;5008376;28;20020;-53
2024/03/10 07:26:37;;;;;;;1.95;0.82;;;12.20;46.40;;;6.98;64.18;93028.38;5010034;28;20383;-51
2024/03/10 07:29:03;;;;;;;1.25;0.80;;;12.20;46.40;;;7.06;63.98;93021.56;5010832;28;20029;-52
2024/03/10 07:31:29;;;;;;;1.40;0.88;;;12.20;46.40;;;7.12;65.22;93012.41;5008610;28;20033;-50
2024/03/10 07:33:56;;;;;;;2.30;0.90;;;12.30;46.50;;;7.07;65.01;92997.44;5008641;28;20025;-53
2024/03/10 07:36:22;;;;;;;1.05;0.95;;;12.40;46.50;;;6.93;65.96;92994.09;5009772;28;20025;-52
2024/03/10 07:38:51;;;;;;;1.40;0.90;;;12.40;46.50;;;7.10;66.56;92996.03;5008819;28;20029;-52
2024/03/10 07:41:18;;;;;;;1.27;0.90;;;12.40;46.50;;;7.22;63.07;92993.59;5008677;28;20111;-51
2024/03/10 07:43:44;;;;;;;1.38;0.95;;;12.50;46.50;;;7.22;62.84;93003.41;5009236;28;20071;-52
2024/03/10 07:46:11;;;;;;;1.70;0.90;;;12.60;47.00;;;7.35;62.18;92990.06;5004699;28;20025;-51
2024/03/10 07:48:36;;;;;;;1.35;0.93;;;12.70;46.20;;;7.71;63.61;93006.81;5007436;28;20013;-50
2024/03/10 07:51:03;;;;;;;1.70;1.08;;;13.00;46.20;;;8.16;62.43;93015.31;5006635;28;20029;-52
2024/03/10 07:53:30;;;;;;;1.35;0.85;;;13.50;46.00;;;8.48;61.02;93019.41;5005724;28;20480;-50
2024/03/10 07:56:00;;;;;;;1.42;1.00;;;13.90;45.70;;;8.76;59.11;93030.44;5010465;28;20022;-53
2024/03/10 07:58:26;;;;;;;1.00;0.90;;;14.20;45.40;;;9.08;58.38;93038.97;5007266;28;20380;-53
2024/03/10 08:00:57;;;;;;;1.00;0.90;;;14.50;45.20;;;9.33;58.40;93055.16;5007185;28;20040;-51
2024/03/10 08:03:23;;;;;;;1.38;1.00;;;14.80;44.90;;;9.52;57.53;93082.13;5007454;28;20033;-55
2024/03/10 08:05:49;;;;;;;3.25;0.98;;;15.10;44.70;;;9.75;55.34;93064.09;5009197;28;20499;-52
2024/03/10 08:08:15;;;;;;;0.77;0.70;;;15.30;44.20;;;9.88;54.89;93062.28;5009283;28;20025;-52
2024/03/10 08:10:42;;;;;;;1.92;0.93;;;15.50;43.90;;;9.98;55.03;93069.13;5008174;28;20120;-50
2024/03/10 08:13:08;;;;;;;1.60;0.90;;;15.60;43.60;;;10.09;54.78;93076.41;5009546;28;20399;-51
2024/03/10 08:15:34;;;;;;;1.30;1.08;;;15.70;43.50;;;10.19;55.64;93068.06;5007943;28;20025;-51
2024/03/10 08:18:00;;;;;;;3.72;0.80;;;15.80;43.50;;;10.20;54.06;93074.94;5007348;28;20514;-53
2024/03/10 08:20:27;;;;;;;0.90;0.90;;;15.80;43.20;;;10.08;54.04;93053.56;5002925;28;20025;-51
2024/03/10 08:22:52;;;;;;;2.22;0.90;;;15.80;42.90;;;9.92;55.71;93052.56;5012574;28;20029;-52
2024/03/10 08:25:19;;;;;;;1.85;1.05;;;15.70;42.80;;;9.93;57.49;93076.19;5013663;28;20048;-51
2024/03/10 08:27:45;;;;;;;0.95;0.82;;;15.70;42.90;;;9.65;58.04;93075.84;5012596;28;20073;-51
2024/03/10 08:30:15;;;;;;;1.30;1.05;;;15.70;42.90;;;9.60;58.45;93069.94;5007981;28;20032;-50
2024/03/10 08:32:41;;;;;;;0.80;0.80;;;15.60;42.80;;;9.67;58.28;93083.50;5012789;28;20120;-52
2024/03/10 08:35:08;;;;;;;0.70;0.68;;;15.60;42.80;;;9.62;56.77;93075.69;5011833;28;20132;-53
2024/03/10 08:37:39;;;;;;;2.50;0.77;;;15.60;42.80;;;9.75;57.25;93087.22;5013120;28;20025;-53
2024/03/10 08:40:11;;;;;;;0.85;0.70;;;15.60;42.70;;;9.98;56.92;93085.09;5010060;28;20021;-51
2024/03/10 08:42:39;;;;;;;1.33;0.90;;;15.60;42.80;;;10.09;56.14;93080.94;5013190;28;20040;-51
2024/03/10 08:45:10;;;;;;;10.70;5.68;;;15.70;42.90;;;10.12;56.61;93067.00;5012913;28;20032;-51
2024/03/10 08:47:42;;;;;;;2.35;0.90;;;15.80;42.90;;;10.12;56.12;93059.81;5011491;28;20033;-51
2024/03/10 08:50:11;;;;;;;1.05;0.73;;;15.80;42.80;;;10.33;55.54;93069.72;5012590;28;20021;-55
2024/03/10 08:52:40;;;;;;;1.13;0.82;;;15.80;42.80;;;10.46;55.13;93082.00;5013908;28;20033;-51
2024/03/10 08:55:13;;;;;;;1.70;0.80;;;15.90;42.80;;;10.54;54.17;93075.06;5018144;28;20067;-52
2024/03/10 08:57:41;;;;;;;1.25;0.98;;;16.00;42.70;;;10.60;54.13;93077.19;5010133;28;20120;-52
2024/03/10 09:00:10;;;;;;;3.38;1.10;;;16.10;42.50;;;10.70;54.51;93083.25;5008406;28;20061;-53
2024/03/10 09:02:37;;;;;;;1.73;1.00;;;16.20;42.40;;;10.78;52.60;93087.69;5012526;28;20108;-53
2024/03/10 09:05:07;;;;;;;2.17;1.67;;;16.30;42.20;;;10.82;52.23;93072.66;5014067;28;20037;-52
2024/03/10 09:07:34;;;;;;;3.30;1.10;;;16.40;41.90;;;10.92;51.83;93074.13;5018322;28;20037;-56
2024/03/10 09:10:00;;;;;;;2.58;0.90;;;16.50;41.80;;;11.00;52.46;93086.56;5011175;28;20060;-53
2024/03/10 09:12:27;;;;;;;1.75;1.00;;;16.50;41.60;;;10.98;54.46;93091.47;5012519;28;20033;-50
2024/03/10 09:14:53;;;;;;;2.00;1.42;;;16.60;41.60;;;11.00;53.85;93086.56;5011450;28;20853;-51
2024/03/10 09:17:20;;;;;;;1.80;1.48;;;16.70;42.20;;;11.11;53.23;93096.50;5008552;28;20044;-51
2024/03/10 09:19:46;;;;;;;1.95;1.40;;;16.80;41.40;;;11.27;53.54;93103.88;5014328;28;20116;-52
2024/03/10 09:22:11;;;;;;;3.55;1.50;;;17.00;41.40;;;11.46;53.84;93100.72;5011577;28;20192;-51
2024/03/10 09:24:37;;;;;;;1.52;1.40;;;17.30;41.30;;;11.60;53.95;93092.44;4992933;28;20108;-51
2024/03/10 09:27:03;;;;;;;1.88;1.52;;;17.50;41.20;;;11.84;52.83;93102.34;5012463;28;20033;-54
2024/03/10 09:29:29;;;;;;;2.70;1.48;;;17.70;41.60;;;12.16;52.16;93106.84;5010660;28;20017;-52
2024/03/10 09:31:56;;;;;;;1.48;1.25;;;18.10;40.80;;;12.36;52.57;93104.38;5011059;28;20106;-52
2024/03/10 09:34:23;;;;;;;2.47;1.58;;;18.30;40.60;;;12.51;52.23;93114.38;5010968;28;20080;-55
2024/03/10 09:36:50;;;;;;;3.08;1.17;;;18.50;40.40;;;12.53;51.50;93112.13;5009354;28;20033;-51
2024/03/10 09:39:17;;;;;;;1.70;1.13;;;18.60;40.20;;;12.66;50.17;93105.69;5008279;28;20036;-51
2024/03/10 09:41:47;;;;;;;1.38;1.08;;;18.70;39.80;;;12.67;48.11;93103.78;5014788;28;20045;-51
2024/03/10 09:44:22;;;;;;;1.70;1.08;;;18.80;39.50;;;12.69;48.24;93114.88;5000783;28;20387;-52
2024/03/10 09:46:50;;;;;;;2.10;1.10;;;18.90;39.10;;;12.73;47.45;93113.88;5010203;28;20025;-53
2024/03/10 09:49:20;;;;;;;1.45;1.30;;;19.00;38.90;;;12.86;46.69;93125.31;5014301;28;20468;-52
2024/03/10 09:51:49;;;;;;;1.60;1.40;;;19.30;38.40;;;12.95;46.50;93125.97;5010722;28;20045;-53
2024/03/10 09:54:19;;;;;;;1.40;1.30;;;19.70;37.80;;;13.20;46.20;93124.00;5010434;28;20029;-52
2024/03/10 09:56:52;;;;;;;1.75;1.60;;;20.10;37.20;;;13.37;45.25;93130.19;5005718;28;20131;-51
2024/03/10 09:59:46;;;;;;;2.88;1.38;;;20.50;36.70;;;13.71;44.64;93139.50;4993821;28;20025;-52
2024/03/10 10:02:35;;;;;;;1.40;1.30;;;20.80;36.00;;;13.83;44.55;93139.44;5001632;28;20029;-51
2024/03/10 10:05:14;;;;;;;2.42;1.67;;;21.00;35.60;;;13.98;45.00;93137.13;4999371;28;20017;-51
2024/03/10 10:07:40;;;;;;;2.22;1.40;;;21.00;35.40;;;14.06;43.56;93144.97;4994473;28;20223;-51
2024/03/10 10:10:06;;;;;;;1.42;1.33;;;21.10;35.40;;;14.16;42.93;93148.25;5007527;28;20018;-51
2024/03/10 10:12:32;;;;;;;3.20;1.33;;;21.30;34.90;;;14.32;42.83;93146.34;5011460;28;20493;-53
2024/03/10 10:14:58;;;;;;;1.25;1.15;;;21.50;35.20;;;14.53;42.44;93146.09;4993865;28;20020;-52
2024/03/10 10:17:25;;;;;;;1.63;1.50;;;21.70;34.30;;;14.68;43.57;93141.84;5010588;28;20123;-52
2024/03/10 10:19:51;;;;;;;2.58;2.35;;;21.80;34.20;;;14.46;44.70;93141.31;5010902;28;20498;-51
2024/03/10 10:22:23;;;;;;;3.92;3.50;;;21.80;34.10;;;14.07;45.30;93165.28;5010470;28;20029;-57
2024/03/10 10:25:03;;;;;;;;;;;21.60;33.70;;;14.00;45.83;93162.41;5007672;28;20021;-53
2024/03/10 10:27:31;;;;;;;7.30;3.95;;;21.40;34.20;;;13.88;46.63;93170.50;5008133;28;19932;-54
2024/03/10 10:29:57;;;;;;;6.13;4.45;;;21.30;34.20;;;13.76;47.99;93179.38;5018042;28;20064;-51
2024/03/10 10:32:24;;;;;;;4.90;3.90;;;21.10;34.30;;;13.37;48.70;93172.97;5010951;28;20324;-51
2024/03/10 10:34:56;;;;;;;5.60;4.60;;;20.90;34.30;;;13.40;49.72;93183.00;5028363;23;20045;-54
2024/03/10 10:37:22;;;;;;;5.53;4.70;;;20.80;34.70;;;13.40;50.03;93175.75;4988342;28;20606;-53
2024/03/10 10:39:48;;;;;;;5.93;4.65;;;20.60;35.00;;;13.33;50.24;93183.56;4989702;28;20120;-49
2024/03/10 10:42:14;;;;;;;7.18;5.38;;;20.50;35.30;;;13.06;50.80;93168.25;4995407;28;20477;-51
2024/03/10 10:44:40;;;;;;;8.95;5.38;;;20.30;35.30;;;13.12;51.55;93172.25;4989423;28;20068;-51
2024/03/10 10:47:14;;;;;;;6.30;5.38;;;20.10;35.70;;;13.03;50.79;93177.72;4989905;28;20026;-55
2024/03/10 10:49:39;;;;;;;7.78;5.55;;;20.00;36.60;;;13.03;51.48;93171.59;4988715;28;20033;-53